MXAK OFFICE AK US NWS current weather conditions

sailwx.info

Wind from 070 at 12 knots gusting 21

Air temperature -7.7° C
Dewpoint -21.6° C

Last reported at 2020-Jan-18 14:32 UTC.
Time now 2020-Jan-18 15:22 UTC

Location: N 58°18' W 134°26'.
View on Google Maps.

See reports from other nearby stations

  
Tides and Currents Weather Stations Pressure Air Temp Water Temp Dewpoint Dewpoint Depression Visibility Wind Speed Wind Dir Waves Ship Positions
date/time (UTC)wind fromknots sea level pressurealtimeterstation pressurevisibilityair tempwater tempwave heightnotes
2020-Jan-18 14:32 070 12 gusting 21 -7.7
2020-Jan-18 14:22 070 14 gusting 26 -7.7
2020-Jan-18 14:12 070 12 gusting 27 -7.7
2020-Jan-18 14:02 070 13 gusting 27 -7.7
2020-Jan-18 13:52 080 13 gusting 25 -7.8
2020-Jan-18 13:42 070 12 gusting 20 -8.0
2020-Jan-18 13:32 070 13 gusting 25 -8.0
2020-Jan-18 13:23 070 13 gusting 33 -7.7
2020-Jan-18 13:13 070 13 gusting 27 -7.9
2020-Jan-18 13:02 070 13 gusting 26 -7.9
2020-Jan-18 12:52 070 13 gusting 28 -8.0
2020-Jan-18 12:42 060 12 gusting 27 -8.1
2020-Jan-18 12:32 060 13 gusting 28 -8.0
2020-Jan-18 12:22 080 7 gusting 22 -8.2
2020-Jan-18 12:12 070 9 gusting 24 -8.4
2020-Jan-18 12:02 070 9 gusting 25 -8.4
2020-Jan-18 11:52 070 11 gusting 26 -8.4
2020-Jan-18 11:42 070 7 gusting 17 -8.4
2020-Jan-18 11:32 070 8 gusting 27 -8.5
2020-Jan-18 11:22 060 5 gusting 19 -8.6
2020-Jan-18 11:12 060 8 gusting 19 -8.7
2020-Jan-18 11:02 080 6 gusting 18 -8.6
2020-Jan-18 10:52 060 5 gusting 13 -8.5
2020-Jan-18 10:42 110 6 gusting 15 -8.6
2020-Jan-18 10:32 070 4 gusting 15 -8.7
2020-Jan-18 10:23 090 6 gusting 13 -8.8
2020-Jan-18 10:12 060 8 gusting 20 -8.8
2020-Jan-18 10:02 060 6 gusting 14 -8.8
2020-Jan-18 09:52 080 8 gusting 24 -8.9
2020-Jan-18 09:42 080 7 gusting 24 -8.9
2020-Jan-18 09:32 070 8 gusting 24 -9.0
2020-Jan-18 09:22 070 15 gusting 34 -9.0
2020-Jan-18 09:12 070 8 gusting 25 -9.2
2020-Jan-18 09:02 060 17 gusting 34 -9.1
2020-Jan-18 08:52 070 18 gusting 33 -9.3
2020-Jan-18 08:42 070 19 gusting 33 -9.5
2020-Jan-18 08:32 070 20 gusting 32 -9.5
2020-Jan-18 08:22 070 18 gusting 34 -9.6
2020-Jan-18 08:12 070 17 gusting 29 -9.7
2020-Jan-18 08:02 080 18 gusting 28 -9.7
2020-Jan-18 07:52 080 18 gusting 32 -9.6
2020-Jan-18 07:42 070 19 gusting 34 -9.7
2020-Jan-18 07:32 070 17 gusting 29 -9.7
2020-Jan-18 07:22 070 14 gusting 31 -9.6
2020-Jan-18 07:13 080 13 gusting 27 -9.6
2020-Jan-18 07:02 070 12 gusting 22 -9.6
2020-Jan-18 06:52 070 13 gusting 24 -9.8
2020-Jan-18 06:42 070 13 gusting 29 -9.8
2020-Jan-18 06:32 070 12 gusting 22 -9.9
2020-Jan-18 06:22 070 13 gusting 24 -9.7
2020-Jan-18 06:12 070 13 gusting 27 -9.7
2020-Jan-18 06:02 070 14 gusting 25 -9.6
2020-Jan-18 05:52 070 14 gusting 29 -9.8
2020-Jan-18 05:42 070 14 gusting 26 -9.9
2020-Jan-18 05:32 070 15 gusting 27 -9.8
2020-Jan-18 05:22 070 14 gusting 27 -9.7
2020-Jan-18 05:12 070 13 gusting 25 -9.7
2020-Jan-18 05:02 070 13 gusting 26 -9.6
2020-Jan-18 04:52 070 13 gusting 26 -9.6
2020-Jan-18 04:42 060 13 gusting 29 -9.6
2020-Jan-18 04:32 070 13 gusting 26 -9.6
2020-Jan-18 04:22 070 13 gusting 24 -9.7
2020-Jan-18 04:12 070 13 gusting 26 -9.8
2020-Jan-18 04:02 070 13 gusting 25 -9.7
2020-Jan-18 03:52 070 13 gusting 27 -9.6
2020-Jan-18 03:42 070 15 gusting 28 -9.9
2020-Jan-18 03:32 070 14 gusting 29 -9.9
2020-Jan-18 03:22 070 17 gusting 32 -9.8
2020-Jan-18 03:12 070 17 gusting 34 -9.8
2020-Jan-18 03:02 070 14 gusting 32 -10.0
2020-Jan-18 02:53 070 15 gusting 32 -10.0
2020-Jan-18 02:43 070 14 gusting 27 -10.0
2020-Jan-18 02:33 060 13 gusting 31 -10.0
2020-Jan-18 02:22 070 17 gusting 32 -10.1
2020-Jan-18 02:12 070 15 gusting 29 -10.3
2020-Jan-18 02:03 070 15 gusting 27 -10.3
2020-Jan-18 01:52 060 13 gusting 25 -10.3
2020-Jan-18 01:42 070 14 gusting 28 -10.3
2020-Jan-18 01:32 060 13 gusting 26 -10.3
2020-Jan-18 01:23 060 13 gusting 28 -10.3
2020-Jan-18 01:13 070 15 gusting 34 -10.3
2020-Jan-18 01:02 070 13 gusting 26 -10.4
2020-Jan-18 00:52 070 13 gusting 27 -10.5
2020-Jan-18 00:42 070 13 gusting 21 -10.4
2020-Jan-18 00:32 060 13 gusting 26 -10.2
2020-Jan-18 00:22 070 12 gusting 27 -10.2
2020-Jan-18 00:12 070 12 gusting 22 -10.1
2020-Jan-17 23:52 070 12 gusting 22 -10.1
2020-Jan-17 23:42 070 13 gusting 26 -10.1
2020-Jan-17 23:33 070 14 gusting 28 -10.0
2020-Jan-17 23:22 070 13 gusting 26 -10.0
2020-Jan-17 23:12 070 12 gusting 27 -10.2
2020-Jan-17 23:02 070 14 gusting 27 -10.0
2020-Jan-17 22:52 070 14 gusting 27 -10.1
2020-Jan-17 22:42 070 13 gusting 26 -10.0
2020-Jan-17 22:32 070 13 gusting 26 -10.1
2020-Jan-17 22:22 070 13 gusting 25 -10.0
2020-Jan-17 22:13 070 15 gusting 26 -9.9
2020-Jan-17 22:02 070 13 gusting 31 -9.9
2020-Jan-17 21:52 070 13 gusting 28 -9.9
2020-Jan-17 21:42 070 12 gusting 33 -10.0
2020-Jan-17 21:32 070 14 gusting 34 -10.0
2020-Jan-17 21:22 070 13 gusting 34 -10.0
2020-Jan-17 21:13 070 13 gusting 31 -10.1
2020-Jan-17 21:02 060 17 gusting 32 -10.2
2020-Jan-17 20:53 070 13 gusting 24 -10.0
2020-Jan-17 20:42 070 14 gusting 27 -10.2
2020-Jan-17 20:32 070 14 gusting 27 -10.2
2020-Jan-17 20:22 070 13 gusting 33 -10.2
2020-Jan-17 20:12 070 14 gusting 29 -10.5
2020-Jan-17 20:02 070 17 gusting 31 -10.5
2020-Jan-17 19:52 070 13 gusting 22 -10.6
2020-Jan-17 19:43 070 13 gusting 27 -10.7
2020-Jan-17 19:33 070 13 gusting 24 -10.7
2020-Jan-17 19:23 070 9 gusting 20 -10.7
2020-Jan-17 19:13 070 13 gusting 27 -10.7
2020-Jan-17 19:02 070 13 gusting 24 -10.8
2020-Jan-17 18:52 070 15 gusting 24 -10.8
2020-Jan-17 18:43 070 14 gusting 25 -10.8
2020-Jan-17 18:33 070 13 gusting 24 -10.9
2020-Jan-17 18:23 070 12 gusting 21 -10.9
2020-Jan-17 18:12 070 9 gusting 24 -10.9
2020-Jan-17 18:02 070 11 gusting 20 -10.9
2020-Jan-17 17:53 070 13 gusting 27 -11.0
2020-Jan-17 17:43 070 13 gusting 21 -11.0
2020-Jan-17 17:32 080 13 gusting 22 -11.0
2020-Jan-17 17:22 070 13 gusting 22 -10.9
2020-Jan-17 17:13 090 12 gusting 28 -10.9
2020-Jan-17 17:02 100 9 gusting 21 -10.9
2020-Jan-17 16:53 080 12 gusting 32 -11.0
2020-Jan-17 16:42 080 11 gusting 32 -10.9
2020-Jan-17 16:32 080 11 gusting 24 -11.0
2020-Jan-17 16:23 090 7 gusting 25 -10.9
2020-Jan-17 16:13 080 7 gusting 22 -10.9
2020-Jan-17 16:02 080 9 gusting 24 -10.9
2020-Jan-17 15:53 090 8 gusting 20 -10.9
2020-Jan-17 15:42 080 8 gusting 22 -11.0
2020-Jan-17 15:32 080 11 gusting 24 -10.9
2020-Jan-17 15:22 080 8 gusting 31 -10.8
2020-Jan-17 15:12 080 7 gusting 20 -10.8
2020-Jan-17 15:03 080 6 gusting 15 -10.9
2020-Jan-17 14:52 070 9 gusting 25 -10.8
2020-Jan-17 14:43 080 11 gusting 26 -10.9
2020-Jan-17 14:32 080 11 gusting 22 -10.9
2020-Jan-17 14:22 070 8 gusting 26 -10.9
2020-Jan-17 14:12 070 13 gusting 27 -10.9
2020-Jan-17 14:02 080 7 gusting 20 -10.9
2020-Jan-17 13:52 090 7 gusting 21 -10.8
2020-Jan-17 13:42 080 13 gusting 28 -10.8
2020-Jan-17 13:32 080 7 gusting 26 -10.9
2020-Jan-17 13:22 100 8 gusting 20 -10.9
2020-Jan-17 13:12 090 11 gusting 27 -10.9
2020-Jan-17 13:02 080 11 gusting 28 -10.8
2020-Jan-17 12:52 080 11 gusting 28 -10.8
2020-Jan-17 12:42 090 12 gusting 28 -10.8
2020-Jan-17 12:32 080 15 gusting 39 -10.8
2020-Jan-17 12:22 080 13 gusting 32 -10.8
2020-Jan-17 12:12 110 9 gusting 26 -10.7
2020-Jan-17 12:02 110 12 gusting 27 -10.7
2020-Jan-17 11:52 110 11 gusting 28 -10.7
2020-Jan-17 11:42 080 13 gusting 31 -10.7
2020-Jan-17 11:32 100 13 gusting 31 -10.7
2020-Jan-17 11:22 080 17 gusting 39 -10.7
2020-Jan-17 11:12 090 17 gusting 33 -10.7
2020-Jan-17 11:02 080 15 gusting 38 -10.7
2020-Jan-17 10:52 080 15 gusting 36 -10.7
2020-Jan-17 10:42 080 15 gusting 33 -10.6
2020-Jan-17 10:32 080 13 gusting 34 -10.6
2020-Jan-17 10:23 100 12 gusting 25 -10.5
2020-Jan-17 10:13 090 13 gusting 33 -10.5
2020-Jan-17 10:02 080 15 gusting 34 -10.5
2020-Jan-17 09:52 080 17 gusting 34 -10.5
2020-Jan-17 09:42 070 14 gusting 34 -10.5
2020-Jan-17 09:32 080 13 gusting 32 -10.4
2020-Jan-17 09:22 090 18 gusting 41 -10.4
2020-Jan-17 09:12 070 19 gusting 38 -10.4
2020-Jan-17 09:02 080 14 gusting 35 -10.3
2020-Jan-17 08:52 080 14 gusting 35 -10.4
2020-Jan-17 08:43 080 15 gusting 32 -10.4
2020-Jan-17 08:32 080 14 gusting 33 -10.3
2020-Jan-17 08:22 080 17 gusting 34 -10.4
2020-Jan-17 08:12 080 15 gusting 33 -10.3
2020-Jan-17 08:02 080 13 gusting 32 -10.3
2020-Jan-17 07:52 070 15 gusting 34 -10.2
2020-Jan-17 07:42 080 15 gusting 29 -10.2
2020-Jan-17 07:32 070 17 gusting 32 -10.1
2020-Jan-17 07:23 080 17 gusting 34 -10.1
2020-Jan-17 07:12 070 18 gusting 36 -10.0
2020-Jan-17 07:02 080 18 gusting 46 -10.0
2020-Jan-17 06:52 070 18 gusting 48 -9.9
2020-Jan-17 06:42 070 17 gusting 38 -9.9
2020-Jan-17 06:32 070 20 gusting 40 -9.9
2020-Jan-17 06:22 090 17 gusting 35 -9.8
2020-Jan-17 06:12 080 20 gusting 41 -9.8
2020-Jan-17 06:02 080 18 gusting 36 -9.8
2020-Jan-17 05:52 080 15 gusting 39 -9.9
2020-Jan-17 05:42 080 19 gusting 46 -9.9
2020-Jan-17 05:32 080 19 gusting 34 -9.8
2020-Jan-17 05:22 080 20 gusting 41 -9.6
2020-Jan-17 05:12 070 19 gusting 39 -9.6
2020-Jan-17 05:02 080 20 gusting 40 -9.5
2020-Jan-17 04:52 070 20 gusting 44 -9.6
2020-Jan-17 04:42 080 18 gusting 44 -9.6
2020-Jan-17 04:32 070 19 gusting 38 -9.5
2020-Jan-17 04:22 070 17 gusting 32 -9.6
2020-Jan-17 04:13 080 19 gusting 39 -9.5
2020-Jan-17 04:02 080 18 gusting 40 -9.3
2020-Jan-17 03:52 080 13 gusting 31 -9.3
2020-Jan-17 03:42 080 14 gusting 29 -9.3
2020-Jan-17 03:32 090 6 gusting 19 -9.3
2020-Jan-17 03:22 070 11 gusting 28 -9.2
2020-Jan-17 03:12 090 11 gusting 26 -9.2
2020-Jan-17 03:02 070 11 gusting 25 -9.1
2020-Jan-17 02:53 100 6 gusting 22 -9.1
2020-Jan-17 02:42 090 8 gusting 21 -9.1
2020-Jan-17 02:33 070 12 gusting 25 -9.1
2020-Jan-17 02:22 080 6 gusting 22 -9.1
2020-Jan-17 02:12 070 7 gusting 27 -9.1
2020-Jan-17 02:02 090 8 gusting 19 -9.0
2020-Jan-17 01:52 070 7 gusting 20 -9.0
2020-Jan-17 01:42 090 6 gusting 20 -8.9
2020-Jan-17 01:32 120 6 gusting 18 -8.9
2020-Jan-17 01:23 100 7 gusting 20 -8.8
2020-Jan-17 01:13 080 7 gusting 20 -8.8
2020-Jan-17 01:02 080 4 gusting 12 -8.8
2020-Jan-17 00:52 100 6 gusting 20 -8.8
2020-Jan-17 00:42 100 11 gusting 19 -8.8
2020-Jan-17 00:32 110 8 gusting 22 -8.8
2020-Jan-17 00:22 100 11 gusting 33 -8.7
2020-Jan-17 00:12 070 9 gusting 34 -8.7
2020-Jan-16 23:52 100 13 gusting 34 -8.7
2020-Jan-16 23:42 090 8 gusting 22 -8.7
2020-Jan-16 23:32 080 11 gusting 26 -8.8
2020-Jan-16 23:22 090 11 gusting 29 -8.7
2020-Jan-16 23:12 070 12 gusting 28 -8.7
2020-Jan-16 23:02 070 14 gusting 29 -8.8
2020-Jan-16 22:52 080 13 gusting 33 -8.8
2020-Jan-16 22:42 080 13 gusting 27 -8.7
2020-Jan-16 22:32 070 18 gusting 36 -8.7
2020-Jan-16 22:23 070 14 gusting 34 -8.7
2020-Jan-16 22:13 080 14 gusting 34 -8.7
2020-Jan-16 22:02 070 15 gusting 34 -8.7
2020-Jan-16 21:52 080 17 gusting 41 -8.7
2020-Jan-16 21:42 080 17 gusting 33 -8.7
2020-Jan-16 21:32 080 17 gusting 34 -8.7
2020-Jan-16 21:22 080 13 gusting 31 -8.7
2020-Jan-16 21:13 080 18 gusting 38 -8.7
2020-Jan-16 21:02 070 15 gusting 32 -8.6
2020-Jan-16 20:52 080 22 gusting 51 -8.6
2020-Jan-16 20:43 070 20 gusting 38 -8.6
2020-Jan-16 20:33 080 14 gusting 34 -8.6
2020-Jan-16 20:23 070 17 gusting 38 -8.6
2020-Jan-16 20:13 080 19 gusting 38 -8.6
2020-Jan-16 20:03 070 12 gusting 29 -8.7
2020-Jan-16 19:52 080 21 gusting 55 -8.7
2020-Jan-16 19:43 070 18 gusting 40 -8.8
2020-Jan-16 19:33 070 14 gusting 34 -8.8
2020-Jan-16 19:23 080 15 gusting 36 -8.8
2020-Jan-16 19:13 080 19 gusting 45 -8.9
2020-Jan-16 19:02 080 20 gusting 41 -8.9
2020-Jan-16 18:52 080 25 gusting 45 -9.0
2020-Jan-16 18:42 080 24 gusting 49 -9.0
2020-Jan-16 18:33 080 24 gusting 42 -9.1
2020-Jan-16 18:22 080 27 gusting 52 -8.9
2020-Jan-16 18:12 080 27 gusting 62 -9.0
2020-Jan-16 18:02 070 20 gusting 51 -9.1
2020-Jan-16 17:53 080 20 -9.1
2020-Jan-16 17:42 070 24 -9.1
2020-Jan-16 17:33 080 22 -9.1
2020-Jan-16 17:23 080 28 -9.0
2020-Jan-16 17:12 160 22 -9.0
2020-Jan-16 17:02 140 20 -8.9
2020-Jan-16 16:53 130 27 -8.8
2020-Jan-16 16:42 110 28 gusting 95 -9.3
2020-Jan-16 16:33 060 41 gusting 78 -10.2
2020-Jan-16 16:23 070 34 gusting 76 -10.2
2020-Jan-16 16:12 080 33 gusting 68 -10.3
2020-Jan-16 16:03 070 44 gusting 78 -10.4
2020-Jan-16 15:53 060 44 gusting 78 -10.3
2020-Jan-16 15:42 060 36 gusting 78 -10.4
2020-Jan-16 15:32 070 40 gusting 78 -10.3
2020-Jan-16 15:22 070 38 gusting 78 -10.3
2020-Jan-16 15:13 080 46 gusting 78 -10.5
2020-Jan-16 15:02 070 40 gusting 78 -10.5